Airfield :
LOGIN :

Register | Disclaimer

   EN    FR    IT 

 










Legend :    VFR   Marginal VFR   IFR   Intensive IFR   Very Intensive IFR
Visi :
Ceiling :
>= 8 km
>= 3000ft
5 to 8 km
1000 to 3000 ft
1500m to 5 km
500 to 1000 ft
800 to 1500m
200 to 500 ft
< 800m
< 200 ft
Symbols :   Thunderstorms  Fog  Heavy snow  Heavy precipitations  Wind > 20 kt
SIGMETs :     Misc.  Thunderstorms  Icing  Turbulence  Mountain Waves  Volcanic Ashes






- Airport Elevation : 1959 ft
- IATA code : HOQ


EDQM - Hof Plauen

CURRENT METAR :
  • 011350Z 02011KT 1700 BR OVC002 M00/M01 Q1022

EXPIRED METARs :
  • 011320Z 02010KT 2400 BR OVC003 M00/M00 Q1022
  • 011250Z 02008KT 4600 BR OVC003 00/M00 Q1022
  • 011220Z 02009KT 4800 BR OVC003 00/M00 Q1023
  • 011150Z 02009KT 5000 BR OVC004 00/M00 Q1023
  • 011120Z 02009KT 5000 OVC005 01/M00 Q1023

TAF TAF EDQM
Valid from the 01 at 12:00 until the 01 at 21:00 UTC


011100Z 0112/0121 02006KT 4000 BR BKN004
TEMPO 0112/0115 1200 BR
BECMG 0114/0116 0500 FZFG VV001
TEMPO 0116/0118 2000 -SN BKN003



MET'MAP, your aeronautical weather chart ! - Copyright ORBIFLY December 2007 - Disclaimer

ORBIFLY MET'MAP TEAM :

Programming & Development : Alexandra Zaïnal
Original concept : Baudouin d'Aumeries
Technical & hardware support : Manuel Goepfert
Assistance : Marc-Olivier Méhu




SOURCES & CREDITS :

   NOAA